sensor_id;sensor_type;location;lat;lon;timestamp;temperature;humidity
20284;DHT22;10301;50.832;4.080;2022-11-04T00:02:00;9.70;95.70
20284;DHT22;10301;50.832;4.080;2022-11-04T00:04:27;9.70;95.80
20284;DHT22;10301;50.832;4.080;2022-11-04T00:06:54;9.70;95.60
20284;DHT22;10301;50.832;4.080;2022-11-04T00:09:22;9.60;95.50
20284;DHT22;10301;50.832;4.080;2022-11-04T00:11:48;9.60;95.50
20284;DHT22;10301;50.832;4.080;2022-11-04T00:14:33;9.50;95.00
20284;DHT22;10301;50.832;4.080;2022-11-04T00:16:59;9.50;95.60
20284;DHT22;10301;50.832;4.080;2022-11-04T00:19:45;9.50;95.40
20284;DHT22;10301;50.832;4.080;2022-11-04T00:22:29;9.50;95.30
20284;DHT22;10301;50.832;4.080;2022-11-04T00:25:13;9.50;94.80
20284;DHT22;10301;50.832;4.080;2022-11-04T00:28:09;9.50;94.80
20284;DHT22;10301;50.832;4.080;2022-11-04T00:30:56;9.60;95.20
20284;DHT22;10301;50.832;4.080;2022-11-04T00:33:22;9.70;95.00
20284;DHT22;10301;50.832;4.080;2022-11-04T00:35:53;9.80;94.80
20284;DHT22;10301;50.832;4.080;2022-11-04T00:38:19;9.90;93.50
20284;DHT22;10301;50.832;4.080;2022-11-04T00:40:45;9.70;92.20
20284;DHT22;10301;50.832;4.080;2022-11-04T00:43:10;9.60;92.40
20284;DHT22;10301;50.832;4.080;2022-11-04T00:45:36;9.60;94.00
20284;DHT22;10301;50.832;4.080;2022-11-04T00:48:02;9.60;93.30
20284;DHT22;10301;50.832;4.080;2022-11-04T00:50:28;9.60;93.50
20284;DHT22;10301;50.832;4.080;2022-11-04T00:53:00;9.70;93.40
20284;DHT22;10301;50.832;4.080;2022-11-04T00:55:26;9.60;93.20
20284;DHT22;10301;50.832;4.080;2022-11-04T00:57:52;9.60;93.60
20284;DHT22;10301;50.832;4.080;2022-11-04T01:00:18;9.70;94.00
20284;DHT22;10301;50.832;4.080;2022-11-04T01:02:44;9.80;93.20
20284;DHT22;10301;50.832;4.080;2022-11-04T01:05:10;9.90;92.70
20284;DHT22;10301;50.832;4.080;2022-11-04T01:07:37;10.00;92.00
20284;DHT22;10301;50.832;4.080;2022-11-04T01:10:03;9.90;90.90
20284;DHT22;10301;50.832;4.080;2022-11-04T01:12:28;10.10;91.10
20284;DHT22;10301;50.832;4.080;2022-11-04T01:14:54;10.10;89.70
20284;DHT22;10301;50.832;4.080;2022-11-04T01:17:20;10.20;90.20
20284;DHT22;10301;50.832;4.080;2022-11-04T01:19:45;10.10;88.90
20284;DHT22;10301;50.832;4.080;2022-11-04T01:22:11;10.30;86.00
20284;DHT22;10301;50.832;4.080;2022-11-04T01:24:36;10.20;80.90
20284;DHT22;10301;50.832;4.080;2022-11-04T01:27:02;10.20;80.40
20284;DHT22;10301;50.832;4.080;2022-11-04T01:29:28;10.10;81.10
20284;DHT22;10301;50.832;4.080;2022-11-04T01:31:53;9.80;84.20
20284;DHT22;10301;50.832;4.080;2022-11-04T01:34:19;9.70;89.60
20284;DHT22;10301;50.832;4.080;2022-11-04T01:36:44;9.70;90.20
20284;DHT22;10301;50.832;4.080;2022-11-04T01:39:11;9.60;91.10
20284;DHT22;10301;50.832;4.080;2022-11-04T01:41:37;9.50;91.80
20284;DHT22;10301;50.832;4.080;2022-11-04T01:47:31;9.30;93.30
20284;DHT22;10301;50.832;4.080;2022-11-04T01:50:11;9.30;93.40
20284;DHT22;10301;50.832;4.080;2022-11-04T01:52:43;9.20;93.70
20284;DHT22;10301;50.832;4.080;2022-11-04T01:55:15;9.10;94.40
20284;DHT22;10301;50.832;4.080;2022-11-04T01:57:46;9.10;94.80
20284;DHT22;10301;50.832;4.080;2022-11-04T02:00:13;9.30;94.60
20284;DHT22;10301;50.832;4.080;2022-11-04T02:02:58;9.50;93.50
20284;DHT22;10301;50.832;4.080;2022-11-04T02:05:25;9.60;92.30
20284;DHT22;10301;50.832;4.080;2022-11-04T02:07:54;9.70;90.90
20284;DHT22;10301;50.832;4.080;2022-11-04T02:10:25;9.80;86.60
20284;DHT22;10301;50.832;4.080;2022-11-04T02:12:52;9.80;87.80
20284;DHT22;10301;50.832;4.080;2022-11-04T02:21:21;10.00;83.40
20284;DHT22;10301;50.832;4.080;2022-11-04T02:24:43;10.20;81.80
20284;DHT22;10301;50.832;4.080;2022-11-04T02:38:13;9.70;84.80
20284;DHT22;10301;50.832;4.080;2022-11-04T02:40:42;9.60;90.70
20284;DHT22;10301;50.832;4.080;2022-11-04T02:43:15;9.80;90.70
20284;DHT22;10301;50.832;4.080;2022-11-04T02:45:48;9.80;90.40
20284;DHT22;10301;50.832;4.080;2022-11-04T02:48:34;9.90;86.70
20284;DHT22;10301;50.832;4.080;2022-11-04T02:51:37;9.80;90.30
20284;DHT22;10301;50.832;4.080;2022-11-04T02:54:11;9.90;90.50
20284;DHT22;10301;50.832;4.080;2022-11-04T02:56:43;10.00;89.80
20284;DHT22;10301;50.832;4.080;2022-11-04T02:59:14;10.20;87.90
20284;DHT22;10301;50.832;4.080;2022-11-04T03:01:45;10.40;81.50
20284;DHT22;10301;50.832;4.080;2022-11-04T03:04:14;10.20;77.80
20284;DHT22;10301;50.832;4.080;2022-11-04T03:06:43;10.10;81.40
20284;DHT22;10301;50.832;4.080;2022-11-04T03:09:13;10.00;83.20
20284;DHT22;10301;50.832;4.080;2022-11-04T03:11:43;9.90;88.70
20284;DHT22;10301;50.832;4.080;2022-11-04T03:14:13;9.80;90.50
20284;DHT22;10301;50.832;4.080;2022-11-04T03:16:47;9.70;91.10
20284;DHT22;10301;50.832;4.080;2022-11-04T03:19:52;9.80;91.80
20284;DHT22;10301;50.832;4.080;2022-11-04T03:22:22;10.00;90.30
20284;DHT22;10301;50.832;4.080;2022-11-04T03:24:48;9.90;88.20
20284;DHT22;10301;50.832;4.080;2022-11-04T03:27:32;9.90;90.00
20284;DHT22;10301;50.832;4.080;2022-11-04T03:32:40;9.90;90.90
20284;DHT22;10301;50.832;4.080;2022-11-04T03:35:07;10.00;91.50
20284;DHT22;10301;50.832;4.080;2022-11-04T03:37:33;9.90;91.00
20284;DHT22;10301;50.832;4.080;2022-11-04T03:39:59;9.90;91.90
20284;DHT22;10301;50.832;4.080;2022-11-04T03:42:26;9.80;92.10
20284;DHT22;10301;50.832;4.080;2022-11-04T03:44:54;9.80;92.80
20284;DHT22;10301;50.832;4.080;2022-11-04T03:47:22;9.90;93.50
20284;DHT22;10301;50.832;4.080;2022-11-04T03:50:01;10.00;92.70
20284;DHT22;10301;50.832;4.080;2022-11-04T03:52:29;10.10;92.80
20284;DHT22;10301;50.832;4.080;2022-11-04T03:54:55;10.20;92.10
20284;DHT22;10301;50.832;4.080;2022-11-04T03:57:53;10.20;91.00
20284;DHT22;10301;50.832;4.080;2022-11-04T04:00:22;10.20;90.90
20284;DHT22;10301;50.832;4.080;2022-11-04T04:05:50;10.30;90.60
20284;DHT22;10301;50.832;4.080;2022-11-04T04:13:36;10.50;91.70
20284;DHT22;10301;50.832;4.080;2022-11-04T04:16:28;10.40;90.90
20284;DHT22;10301;50.832;4.080;2022-11-04T04:19:19;10.70;91.00
20284;DHT22;10301;50.832;4.080;2022-11-04T04:24:13;10.60;90.40
20284;DHT22;10301;50.832;4.080;2022-11-04T04:26:58;10.60;90.60
20284;DHT22;10301;50.832;4.080;2022-11-04T04:29:45;10.80;86.00
20284;DHT22;10301;50.832;4.080;2022-11-04T04:32:12;11.00;86.20
20284;DHT22;10301;50.832;4.080;2022-11-04T04:34:38;11.00;80.40
20284;DHT22;10301;50.832;4.080;2022-11-04T04:37:20;10.70;83.30
20284;DHT22;10301;50.832;4.080;2022-11-04T04:39:52;10.60;90.50
20284;DHT22;10301;50.832;4.080;2022-11-04T04:42:37;10.50;91.10
20284;DHT22;10301;50.832;4.080;2022-11-04T04:45:43;10.50;92.00
20284;DHT22;10301;50.832;4.080;2022-11-04T04:48:12;10.60;92.80
20284;DHT22;10301;50.832;4.080;2022-11-04T04:50:44;10.80;91.90
20284;DHT22;10301;50.832;4.080;2022-11-04T04:53:11;10.90;90.10
20284;DHT22;10301;50.832;4.080;2022-11-04T04:55:37;10.90;86.30
20284;DHT22;10301;50.832;4.080;2022-11-04T04:58:02;10.90;89.40
20284;DHT22;10301;50.832;4.080;2022-11-04T05:00:28;11.00;87.00
20284;DHT22;10301;50.832;4.080;2022-11-04T05:02:54;11.10;85.70
20284;DHT22;10301;50.832;4.080;2022-11-04T05:05:20;11.10;85.10
20284;DHT22;10301;50.832;4.080;2022-11-04T05:07:46;11.20;85.60
20284;DHT22;10301;50.832;4.080;2022-11-04T05:10:13;11.40;81.90
20284;DHT22;10301;50.832;4.080;2022-11-04T05:12:40;11.40;79.10
20284;DHT22;10301;50.832;4.080;2022-11-04T05:15:25;11.30;78.30
20284;DHT22;10301;50.832;4.080;2022-11-04T05:17:59;11.50;76.10
20284;DHT22;10301;50.832;4.080;2022-11-04T05:20:25;11.70;71.40
20284;DHT22;10301;50.832;4.080;2022-11-04T05:22:51;11.60;68.50
20284;DHT22;10301;50.832;4.080;2022-11-04T05:25:16;11.60;67.80
20284;DHT22;10301;50.832;4.080;2022-11-04T05:27:42;11.20;74.00
20284;DHT22;10301;50.832;4.080;2022-11-04T05:30:08;11.00;81.70
20284;DHT22;10301;50.832;4.080;2022-11-04T05:32:34;11.00;88.10
20284;DHT22;10301;50.832;4.080;2022-11-04T05:34:59;11.00;86.60
20284;DHT22;10301;50.832;4.080;2022-11-04T05:37:25;11.30;86.90
20284;DHT22;10301;50.832;4.080;2022-11-04T05:39:51;11.30;82.80
20284;DHT22;10301;50.832;4.080;2022-11-04T05:42:17;11.30;84.10
20284;DHT22;10301;50.832;4.080;2022-11-04T05:44:43;11.40;79.50
20284;DHT22;10301;50.832;4.080;2022-11-04T05:47:08;11.70;73.60
20284;DHT22;10301;50.832;4.080;2022-11-04T05:49:34;11.80;66.90
20284;DHT22;10301;50.832;4.080;2022-11-04T05:51:59;11.70;69.30
20284;DHT22;10301;50.832;4.080;2022-11-04T05:54:25;11.80;70.90
20284;DHT22;10301;50.832;4.080;2022-11-04T05:56:51;11.90;66.40
20284;DHT22;10301;50.832;4.080;2022-11-04T05:59:20;11.80;67.70
20284;DHT22;10301;50.832;4.080;2022-11-04T06:01:45;11.90;67.60
20284;DHT22;10301;50.832;4.080;2022-11-04T06:04:16;12.00;65.40
20284;DHT22;10301;50.832;4.080;2022-11-04T06:06:42;11.90;64.70
20284;DHT22;10301;50.832;4.080;2022-11-04T06:09:08;11.90;65.40
20284;DHT22;10301;50.832;4.080;2022-11-04T06:11:34;11.80;66.40
20284;DHT22;10301;50.832;4.080;2022-11-04T06:14:00;11.70;68.20
20284;DHT22;10301;50.832;4.080;2022-11-04T06:16:26;11.70;67.70
20284;DHT22;10301;50.832;4.080;2022-11-04T06:18:52;11.70;69.20
20284;DHT22;10301;50.832;4.080;2022-11-04T06:21:23;11.80;68.90
20284;DHT22;10301;50.832;4.080;2022-11-04T06:23:50;11.90;67.40
20284;DHT22;10301;50.832;4.080;2022-11-04T06:26:17;11.80;64.60
20284;DHT22;10301;50.832;4.080;2022-11-04T06:28:42;11.60;69.50
20284;DHT22;10301;50.832;4.080;2022-11-04T06:31:09;11.60;70.80
20284;DHT22;10301;50.832;4.080;2022-11-04T06:33:35;11.50;74.20
20284;DHT22;10301;50.832;4.080;2022-11-04T06:36:04;11.60;75.70
20284;DHT22;10301;50.832;4.080;2022-11-04T06:38:31;11.60;69.70
20284;DHT22;10301;50.832;4.080;2022-11-04T06:40:57;11.70;70.00
20284;DHT22;10301;50.832;4.080;2022-11-04T06:43:23;11.70;67.50
20284;DHT22;10301;50.832;4.080;2022-11-04T06:45:59;11.70;66.50
20284;DHT22;10301;50.832;4.080;2022-11-04T06:48:26;11.70;64.40
20284;DHT22;10301;50.832;4.080;2022-11-04T06:50:52;11.60;62.80
20284;DHT22;10301;50.832;4.080;2022-11-04T06:53:18;11.30;66.80
20284;DHT22;10301;50.832;4.080;2022-11-04T06:55:44;11.20;74.50
20284;DHT22;10301;50.832;4.080;2022-11-04T06:58:10;11.20;78.20
20284;DHT22;10301;50.832;4.080;2022-11-04T07:00:36;11.40;77.10
20284;DHT22;10301;50.832;4.080;2022-11-04T07:03:02;11.40;75.20
20284;DHT22;10301;50.832;4.080;2022-11-04T07:05:27;11.50;73.30
20284;DHT22;10301;50.832;4.080;2022-11-04T07:07:53;11.60;71.20
20284;DHT22;10301;50.832;4.080;2022-11-04T07:10:19;11.60;70.40
20284;DHT22;10301;50.832;4.080;2022-11-04T07:12:45;11.50;71.40
20284;DHT22;10301;50.832;4.080;2022-11-04T07:15:10;11.50;73.50
20284;DHT22;10301;50.832;4.080;2022-11-04T07:17:36;11.40;73.70
20284;DHT22;10301;50.832;4.080;2022-11-04T07:20:03;11.50;72.90
20284;DHT22;10301;50.832;4.080;2022-11-04T07:22:30;11.50;71.40
20284;DHT22;10301;50.832;4.080;2022-11-04T07:24:55;11.40;72.30
20284;DHT22;10301;50.832;4.080;2022-11-04T07:27:21;11.40;70.70
20284;DHT22;10301;50.832;4.080;2022-11-04T07:29:46;11.40;70.50
20284;DHT22;10301;50.832;4.080;2022-11-04T07:32:12;11.40;69.50
20284;DHT22;10301;50.832;4.080;2022-11-04T07:34:38;11.30;72.50
20284;DHT22;10301;50.832;4.080;2022-11-04T07:37:03;11.40;74.70
20284;DHT22;10301;50.832;4.080;2022-11-04T07:39:29;11.30;75.80
20284;DHT22;10301;50.832;4.080;2022-11-04T07:41:54;11.40;75.90
20284;DHT22;10301;50.832;4.080;2022-11-04T07:44:20;11.50;75.00
20284;DHT22;10301;50.832;4.080;2022-11-04T07:46:47;11.60;75.30
20284;DHT22;10301;50.832;4.080;2022-11-04T07:49:13;11.70;71.00
20284;DHT22;10301;50.832;4.080;2022-11-04T07:51:38;11.70;69.40
20284;DHT22;10301;50.832;4.080;2022-11-04T07:54:04;11.70;68.40
20284;DHT22;10301;50.832;4.080;2022-11-04T07:56:30;11.80;66.50
20284;DHT22;10301;50.832;4.080;2022-11-04T07:58:55;11.70;63.90
20284;DHT22;10301;50.832;4.080;2022-11-04T08:01:22;11.60;67.10
20284;DHT22;10301;50.832;4.080;2022-11-04T08:03:49;11.50;69.80
20284;DHT22;10301;50.832;4.080;2022-11-04T08:06:16;11.50;70.80
20284;DHT22;10301;50.832;4.080;2022-11-04T08:08:43;11.50;71.50
20284;DHT22;10301;50.832;4.080;2022-11-04T08:11:14;11.60;71.90
20284;DHT22;10301;50.832;4.080;2022-11-04T08:13:41;11.60;67.90
20284;DHT22;10301;50.832;4.080;2022-11-04T08:16:10;11.70;70.40
20284;DHT22;10301;50.832;4.080;2022-11-04T08:18:38;11.70;70.50
20284;DHT22;10301;50.832;4.080;2022-11-04T08:21:04;11.70;69.20
20284;DHT22;10301;50.832;4.080;2022-11-04T08:23:31;11.70;67.00
20284;DHT22;10301;50.832;4.080;2022-11-04T08:25:56;11.60;69.60
20284;DHT22;10301;50.832;4.080;2022-11-04T08:28:23;11.50;72.80
20284;DHT22;10301;50.832;4.080;2022-11-04T08:31:00;11.40;71.20
20284;DHT22;10301;50.832;4.080;2022-11-04T08:33:28;11.50;73.00
20284;DHT22;10301;50.832;4.080;2022-11-04T08:35:59;11.50;69.40
20284;DHT22;10301;50.832;4.080;2022-11-04T08:38:25;11.40;71.70
20284;DHT22;10301;50.832;4.080;2022-11-04T08:40:51;11.30;70.20
20284;DHT22;10301;50.832;4.080;2022-11-04T08:43:17;11.30;75.30
20284;DHT22;10301;50.832;4.080;2022-11-04T08:45:45;11.30;79.00
20284;DHT22;10301;50.832;4.080;2022-11-04T08:48:12;11.40;77.80
20284;DHT22;10301;50.832;4.080;2022-11-04T08:50:38;11.50;77.30
20284;DHT22;10301;50.832;4.080;2022-11-04T08:53:04;11.60;75.50
20284;DHT22;10301;50.832;4.080;2022-11-04T08:55:30;11.70;73.80
20284;DHT22;10301;50.832;4.080;2022-11-04T08:57:57;11.80;75.10
20284;DHT22;10301;50.832;4.080;2022-11-04T09:00:23;12.00;70.60
20284;DHT22;10301;50.832;4.080;2022-11-04T09:02:49;12.10;67.90
20284;DHT22;10301;50.832;4.080;2022-11-04T09:05:14;12.20;67.60
20284;DHT22;10301;50.832;4.080;2022-11-04T09:07:41;12.40;60.90
20284;DHT22;10301;50.832;4.080;2022-11-04T09:10:08;12.40;58.90
20284;DHT22;10301;50.832;4.080;2022-11-04T09:12:34;12.30;62.50
20284;DHT22;10301;50.832;4.080;2022-11-04T09:14:59;12.20;61.50
20284;DHT22;10301;50.832;4.080;2022-11-04T09:17:25;12.20;64.50
20284;DHT22;10301;50.832;4.080;2022-11-04T09:19:50;12.30;65.90
20284;DHT22;10301;50.832;4.080;2022-11-04T09:22:16;12.30;63.00
20284;DHT22;10301;50.832;4.080;2022-11-04T09:24:42;12.30;64.80
20284;DHT22;10301;50.832;4.080;2022-11-04T09:27:09;12.40;64.70
20284;DHT22;10301;50.832;4.080;2022-11-04T09:29:34;12.50;63.30
20284;DHT22;10301;50.832;4.080;2022-11-04T09:32:02;12.70;58.10
20284;DHT22;10301;50.832;4.080;2022-11-04T09:34:28;12.70;58.40
20284;DHT22;10301;50.832;4.080;2022-11-04T09:36:54;12.60;58.70
20284;DHT22;10301;50.832;4.080;2022-11-04T09:39:20;12.60;57.60
20284;DHT22;10301;50.832;4.080;2022-11-04T09:47:10;12.80;56.70
20284;DHT22;10301;50.832;4.080;2022-11-04T09:49:39;12.90;58.50
20284;DHT22;10301;50.832;4.080;2022-11-04T09:57:18;13.60;51.40
20284;DHT22;10301;50.832;4.080;2022-11-04T09:59:45;13.80;47.20
20284;DHT22;10301;50.832;4.080;2022-11-04T10:05:26;14.20;31.80
20284;DHT22;10301;50.832;4.080;2022-11-04T10:24:40;13.90;28.80
20284;DHT22;10301;50.832;4.080;2022-11-04T10:27:20;13.90;29.80
20284;DHT22;10301;50.832;4.080;2022-11-04T10:29:57;13.80;32.80
20284;DHT22;10301;50.832;4.080;2022-11-04T10:32:31;13.80;33.80
20284;DHT22;10301;50.832;4.080;2022-11-04T10:35:26;13.80;32.40
20284;DHT22;10301;50.832;4.080;2022-11-04T10:37:54;13.70;30.70
20284;DHT22;10301;50.832;4.080;2022-11-04T10:40:22;13.50;34.90
20284;DHT22;10301;50.832;4.080;2022-11-04T10:42:49;13.50;38.50
20284;DHT22;10301;50.832;4.080;2022-11-04T10:45:19;13.40;43.20
20284;DHT22;10301;50.832;4.080;2022-11-04T10:47:58;13.40;41.40
20284;DHT22;10301;50.832;4.080;2022-11-04T10:51:07;13.50;34.30
20284;DHT22;10301;50.832;4.080;2022-11-04T10:53:18;13.40;32.80
20284;DHT22;10301;50.832;4.080;2022-11-04T10:55:50;13.20;39.00
20284;DHT22;10301;50.832;4.080;2022-11-04T10:58:23;13.10;44.50
20284;DHT22;10301;50.832;4.080;2022-11-04T11:00:53;13.10;50.20
20284;DHT22;10301;50.832;4.080;2022-11-04T11:03:30;13.00;54.00
20284;DHT22;10301;50.832;4.080;2022-11-04T11:08:48;13.50;55.30
20284;DHT22;10301;50.832;4.080;2022-11-04T11:11:14;13.50;54.40
20284;DHT22;10301;50.832;4.080;2022-11-04T11:13:43;13.80;53.00
20284;DHT22;10301;50.832;4.080;2022-11-04T11:16:20;14.00;41.30
20284;DHT22;10301;50.832;4.080;2022-11-04T11:19:23;14.20;38.30
20284;DHT22;10301;50.832;4.080;2022-11-04T11:21:55;14.60;34.10
20284;DHT22;10301;50.832;4.080;2022-11-04T11:24:23;14.90;30.40
20284;DHT22;10301;50.832;4.080;2022-11-04T11:27:00;15.00;21.30
20284;DHT22;10301;50.832;4.080;2022-11-04T11:29:29;15.20;11.80
20284;DHT22;10301;50.832;4.080;2022-11-04T11:31:57;15.40;7.70
20284;DHT22;10301;50.832;4.080;2022-11-04T11:34:32;15.50;8.50
20284;DHT22;10301;50.832;4.080;2022-11-04T11:37:00;15.60;1.00
20284;DHT22;10301;50.832;4.080;2022-11-04T11:39:31;15.60;1.00
20284;DHT22;10301;50.832;4.080;2022-11-04T11:44:28;15.10;1.00
20284;DHT22;10301;50.832;4.080;2022-11-04T11:47:00;15.30;1.00
20284;DHT22;10301;50.832;4.080;2022-11-04T11:49:36;15.30;1.00
20284;DHT22;10301;50.832;4.080;2022-11-04T11:52:33;15.30;1.00
20284;DHT22;10301;50.832;4.080;2022-11-04T12:00:17;14.90;2.30
20284;DHT22;10301;50.832;4.080;2022-11-04T12:03:11;15.10;1.00
20284;DHT22;10301;50.832;4.080;2022-11-04T12:11:06;15.10;1.00
20284;DHT22;10301;50.832;4.080;2022-11-04T12:13:42;15.20;1.00
20284;DHT22;10301;50.832;4.080;2022-11-04T12:30:24;14.50;11.70
20284;DHT22;10301;50.832;4.080;2022-11-04T12:35:50;14.40;9.20
20284;DHT22;10301;50.832;4.080;2022-11-04T12:38:48;14.30;8.40
20284;DHT22;10301;50.832;4.080;2022-11-04T12:44:12;14.40;18.20
20284;DHT22;10301;50.832;4.080;2022-11-04T12:47:07;14.50;19.10
20284;DHT22;10301;50.832;4.080;2022-11-04T12:52:28;14.90;1.00
20284;DHT22;10301;50.832;4.080;2022-11-04T13:00:22;14.70;8.20
20284;DHT22;10301;50.832;4.080;2022-11-04T13:03:00;14.80;1.60
20284;DHT22;10301;50.832;4.080;2022-11-04T13:05:34;14.70;3.00
20284;DHT22;10301;50.832;4.080;2022-11-04T13:11:06;14.70;7.10
20284;DHT22;10301;50.832;4.080;2022-11-04T13:14:30;14.80;12.00
20284;DHT22;10301;50.832;4.080;2022-11-04T13:16:42;14.80;4.90
20284;DHT22;10301;50.832;4.080;2022-11-04T13:19:40;15.00;1.00
20284;DHT22;10301;50.832;4.080;2022-11-04T13:22:12;14.80;5.00
20284;DHT22;10301;50.832;4.080;2022-11-04T13:24:51;14.90;2.30
20284;DHT22;10301;50.832;4.080;2022-11-04T13:27:21;15.00;6.50
20284;DHT22;10301;50.832;4.080;2022-11-04T13:29:50;15.10;1.00
20284;DHT22;10301;50.832;4.080;2022-11-04T13:32:24;15.10;1.00
20284;DHT22;10301;50.832;4.080;2022-11-04T13:35:10;15.20;1.00
20284;DHT22;10301;50.832;4.080;2022-11-04T13:37:47;15.20;1.00
20284;DHT22;10301;50.832;4.080;2022-11-04T13:40:23;15.20;1.00
20284;DHT22;10301;50.832;4.080;2022-11-04T13:45:54;15.10;1.00
20284;DHT22;10301;50.832;4.080;2022-11-04T13:48:31;15.00;1.00
20284;DHT22;10301;50.832;4.080;2022-11-04T13:51:00;14.80;1.00
20284;DHT22;10301;50.832;4.080;2022-11-04T13:56:40;14.70;1.00
20284;DHT22;10301;50.832;4.080;2022-11-04T13:59:25;14.60;1.00
20284;DHT22;10301;50.832;4.080;2022-11-04T14:04:36;14.40;1.00
20284;DHT22;10301;50.832;4.080;2022-11-04T14:07:04;14.30;1.10
20284;DHT22;10301;50.832;4.080;2022-11-04T14:20:10;13.00;1.00
20284;DHT22;10301;50.832;4.080;2022-11-04T14:25:21;12.70;1.00
20284;DHT22;10301;50.832;4.080;2022-11-04T14:27:49;12.40;1.00
20284;DHT22;10301;50.832;4.080;2022-11-04T14:33:06;12.50;1.40
20284;DHT22;10301;50.832;4.080;2022-11-04T14:35:33;12.40;14.00
20284;DHT22;10301;50.832;4.080;2022-11-04T14:38:05;12.10;27.30
20284;DHT22;10301;50.832;4.080;2022-11-04T14:40:51;11.60;43.60
20284;DHT22;10301;50.832;4.080;2022-11-04T14:43:30;11.60;49.30
20284;DHT22;10301;50.832;4.080;2022-11-04T14:45:59;11.80;41.20
20284;DHT22;10301;50.832;4.080;2022-11-04T14:48:26;11.80;40.20
20284;DHT22;10301;50.832;4.080;2022-11-04T14:50:55;11.80;41.20
20284;DHT22;10301;50.832;4.080;2022-11-04T14:53:30;11.80;43.60
20284;DHT22;10301;50.832;4.080;2022-11-04T14:56:14;12.00;31.90
20284;DHT22;10301;50.832;4.080;2022-11-04T14:59:36;12.10;33.30
20284;DHT22;10301;50.832;4.080;2022-11-04T15:01:38;12.20;37.90
20284;DHT22;10301;50.832;4.080;2022-11-04T15:06:38;12.30;39.40
20284;DHT22;10301;50.832;4.080;2022-11-04T15:09:19;12.50;38.30
20284;DHT22;10301;50.832;4.080;2022-11-04T15:11:45;12.60;39.20
20284;DHT22;10301;50.832;4.080;2022-11-04T15:14:29;12.60;43.00
20284;DHT22;10301;50.832;4.080;2022-11-04T15:16:56;12.50;45.80
20284;DHT22;10301;50.832;4.080;2022-11-04T15:19:32;12.60;48.80
20284;DHT22;10301;50.832;4.080;2022-11-04T15:22:00;12.70;44.80
20284;DHT22;10301;50.832;4.080;2022-11-04T15:24:27;12.60;43.70
20284;DHT22;10301;50.832;4.080;2022-11-04T15:26:56;12.60;43.80
20284;DHT22;10301;50.832;4.080;2022-11-04T15:29:23;12.50;43.70
20284;DHT22;10301;50.832;4.080;2022-11-04T15:31:58;12.50;42.60
20284;DHT22;10301;50.832;4.080;2022-11-04T15:34:24;12.50;44.90
20284;DHT22;10301;50.832;4.080;2022-11-04T15:36:59;12.50;41.90
20284;DHT22;10301;50.832;4.080;2022-11-04T15:39:35;12.50;40.80
20284;DHT22;10301;50.832;4.080;2022-11-04T15:42:05;12.60;32.70
20284;DHT22;10301;50.832;4.080;2022-11-04T15:44:58;12.50;31.80
20284;DHT22;10301;50.832;4.080;2022-11-04T15:47:25;12.30;40.30
20284;DHT22;10301;50.832;4.080;2022-11-04T15:49:53;12.40;38.60
20284;DHT22;10301;50.832;4.080;2022-11-04T15:52:27;12.40;39.50
20284;DHT22;10301;50.832;4.080;2022-11-04T15:54:55;12.30;44.50
20284;DHT22;10301;50.832;4.080;2022-11-04T15:57:36;12.30;45.70
20284;DHT22;10301;50.832;4.080;2022-11-04T16:02:56;12.40;47.60
20284;DHT22;10301;50.832;4.080;2022-11-04T16:05:32;12.40;48.00
20284;DHT22;10301;50.832;4.080;2022-11-04T16:08:19;12.50;45.80
20284;DHT22;10301;50.832;4.080;2022-11-04T16:10:45;12.50;43.90
20284;DHT22;10301;50.832;4.080;2022-11-04T16:15:50;12.70;41.80
20284;DHT22;10301;50.832;4.080;2022-11-04T16:21:25;12.70;33.50
20284;DHT22;10301;50.832;4.080;2022-11-04T16:26:37;12.60;29.70
20284;DHT22;10301;50.832;4.080;2022-11-04T16:29:07;12.50;34.60
20284;DHT22;10301;50.832;4.080;2022-11-04T16:31:35;12.50;32.50
20284;DHT22;10301;50.832;4.080;2022-11-04T16:34:01;12.40;34.40
20284;DHT22;10301;50.832;4.080;2022-11-04T16:36:27;12.30;35.50
20284;DHT22;10301;50.832;4.080;2022-11-04T16:38:57;12.30;31.20
20284;DHT22;10301;50.832;4.080;2022-11-04T16:41:24;12.10;31.80
20284;DHT22;10301;50.832;4.080;2022-11-04T16:43:51;12.00;32.00
20284;DHT22;10301;50.832;4.080;2022-11-04T16:46:18;11.80;38.40
20284;DHT22;10301;50.832;4.080;2022-11-04T16:48:44;11.60;45.00
20284;DHT22;10301;50.832;4.080;2022-11-04T16:51:18;11.70;48.10
20284;DHT22;10301;50.832;4.080;2022-11-04T16:53:49;11.80;40.70
20284;DHT22;10301;50.832;4.080;2022-11-04T16:56:16;11.70;37.20
20284;DHT22;10301;50.832;4.080;2022-11-04T16:58:42;11.70;39.70
20284;DHT22;10301;50.832;4.080;2022-11-04T17:01:12;11.60;40.40
20284;DHT22;10301;50.832;4.080;2022-11-04T17:03:39;11.60;45.80
20284;DHT22;10301;50.832;4.080;2022-11-04T17:06:05;11.50;45.70
20284;DHT22;10301;50.832;4.080;2022-11-04T17:08:31;11.50;45.40
20284;DHT22;10301;50.832;4.080;2022-11-04T17:10:57;11.40;47.10
20284;DHT22;10301;50.832;4.080;2022-11-04T17:13:23;11.30;52.80
20284;DHT22;10301;50.832;4.080;2022-11-04T17:15:48;11.30;54.00
20284;DHT22;10301;50.832;4.080;2022-11-04T17:18:15;11.20;55.70
20284;DHT22;10301;50.832;4.080;2022-11-04T17:20:43;11.00;55.70
20284;DHT22;10301;50.832;4.080;2022-11-04T17:23:12;11.00;60.10
20284;DHT22;10301;50.832;4.080;2022-11-04T17:25:38;10.90;60.20
20284;DHT22;10301;50.832;4.080;2022-11-04T17:28:04;10.80;61.10
20284;DHT22;10301;50.832;4.080;2022-11-04T17:30:30;10.70;61.90
20284;DHT22;10301;50.832;4.080;2022-11-04T17:32:55;10.50;64.20
20284;DHT22;10301;50.832;4.080;2022-11-04T17:35:21;10.50;67.80
20284;DHT22;10301;50.832;4.080;2022-11-04T17:37:51;10.60;64.70
20284;DHT22;10301;50.832;4.080;2022-11-04T17:40:18;10.50;66.60
20284;DHT22;10301;50.832;4.080;2022-11-04T17:42:45;10.40;68.40
20284;DHT22;10301;50.832;4.080;2022-11-04T17:45:30;10.40;67.70
20284;DHT22;10301;50.832;4.080;2022-11-04T17:47:56;10.50;66.30
20284;DHT22;10301;50.832;4.080;2022-11-04T17:50:21;10.40;65.90
20284;DHT22;10301;50.832;4.080;2022-11-04T17:52:47;10.10;70.40
20284;DHT22;10301;50.832;4.080;2022-11-04T17:55:13;10.10;73.70
20284;DHT22;10301;50.832;4.080;2022-11-04T17:57:39;10.20;74.30
20284;DHT22;10301;50.832;4.080;2022-11-04T18:00:06;10.20;69.90
20284;DHT22;10301;50.832;4.080;2022-11-04T18:02:33;10.10;67.80
20284;DHT22;10301;50.832;4.080;2022-11-04T18:05:00;10.10;67.10
20284;DHT22;10301;50.832;4.080;2022-11-04T18:07:27;10.20;64.50
20284;DHT22;10301;50.832;4.080;2022-11-04T18:09:53;10.10;64.10
20284;DHT22;10301;50.832;4.080;2022-11-04T18:12:18;9.70;70.90
20284;DHT22;10301;50.832;4.080;2022-11-04T18:15:08;9.70;77.30
20284;DHT22;10301;50.832;4.080;2022-11-04T18:17:38;9.70;78.80
20284;DHT22;10301;50.832;4.080;2022-11-04T18:20:05;9.70;80.90
20284;DHT22;10301;50.832;4.080;2022-11-04T18:22:34;9.80;78.70
20284;DHT22;10301;50.832;4.080;2022-11-04T18:24:59;9.70;78.90
20284;DHT22;10301;50.832;4.080;2022-11-04T18:27:25;9.70;81.80